SBPA/POA METAR and TAF weather

Enter ICAO airport designator
Station Type Date Time Source
SBPA METAR 2019/10/21 06:00 UTC NOAA

SBPA 210600Z 15008KT 110V170 9999 SCT030 OVC100 18/12 Q1014


Station Type Date Time Source
SBPA Decoded METAR 2019/10/21 06:00 UTC NOAA

Porto Alegre Aero-Porto , Brazil (SBPA) 30-00S 051-11W 3M
Oct 21, 2019 - 02:00 AM EDT / 2019.10.21 0600 UTC
Wind: from the SSE (150 degrees) at 9 MPH (8 KT) (direction variable):0
Visibility: greater than 7 mile(s):0
Sky conditions: overcast
Temperature: 64 F (18 C)
Dew Point: 53 F (12 C)
Relative Humidity: 67%
Pressure (altimeter): 29.94 in. Hg (1014 hPa)
ob: SBPA 210600Z 15008KT 110V170 9999 SCT030 OVC100 18/12 Q1014
cycle: 6

Station Type Date Time Source
SBPA TAF 2019/10/21 06:06 UTC NOAA

TAF SBPA 210300Z 2106/2206 12010KT 9999 SCT035 TN15/2108Z TX19/2118Z PROB40
TEMPO 2108/2114 8000 RA SCT010 BKN030 PROB30 2114/2118 BKN025
RMK PDJ

Example: see airport list